Time;durP1;ratioP1;P1;durP2;ratioP2;P2;SDS_P1;SDS_P2;PMS_P1;PMS_P2;Temp;Humidity;BMP_temperature;BMP_pressure;BME280_temperature;BME280_humidity;BME280_pressure;Samples;Min_cycle;Max_cycle;Signal;HPM_P1;HPM_P2
2022/03/01 00:02:09;;;;;;;12.95;9.25;;;5.00;88.80;;;;;;5011917;28;20050;-76
2022/03/01 00:04:35;;;;;;;11.20;8.65;;;5.00;87.60;;;;;;5012042;28;20126;-76
2022/03/01 00:07:00;;;;;;;12.07;8.93;;;5.00;86.70;;;;;;5012119;28;20073;-76
2022/03/01 00:09:26;;;;;;;12.50;9.18;;;5.00;85.60;;;;;;5011777;28;20470;-76
2022/03/01 00:11:51;;;;;;;12.98;8.88;;;5.00;86.40;;;;;;5011868;28;20104;-76
2022/03/01 00:14:17;;;;;;;14.00;9.20;;;4.90;86.00;;;;;;5011836;28;20037;-76
2022/03/01 00:16:42;;;;;;;12.85;8.63;;;4.90;84.80;;;;;;5011816;28;20096;-76
2022/03/01 00:19:08;;;;;;;12.65;8.35;;;4.80;84.10;;;;;;5011957;28;20100;-76
2022/03/01 00:21:34;;;;;;;11.90;7.97;;;4.80;84.60;;;;;;5011790;28;20065;-76
2022/03/01 00:23:59;;;;;;;12.95;8.90;;;4.80;85.50;;;;;;5011997;28;20041;-76
2022/03/01 00:26:25;;;;;;;11.88;8.80;;;4.80;86.00;;;;;;4995386;28;20474;-76
2022/03/01 00:28:50;;;;;;;10.90;7.97;;;4.80;84.60;;;;;;5011453;28;20042;-76
2022/03/01 00:31:16;;;;;;;12.85;9.02;;;4.80;83.10;;;;;;5011695;28;20049;-77
2022/03/01 00:33:42;;;;;;;11.00;8.40;;;4.80;83.90;;;;;;5011653;28;20049;-76
2022/03/01 00:36:07;;;;;;;13.48;8.68;;;4.80;83.40;;;;;;4995574;28;20034;-76
2022/03/01 00:38:33;;;;;;;11.70;8.77;;;4.80;82.10;;;;;;5011489;28;20042;-76
2022/03/01 00:40:59;;;;;;;12.88;8.18;;;4.70;82.40;;;;;;5011861;28;20050;-76
2022/03/01 00:43:25;;;;;;;10.98;8.63;;;4.70;83.00;;;;;;4995537;28;20034;-76
2022/03/01 00:45:52;;;;;;;12.25;8.75;;;4.70;83.10;;;;;;5011746;28;20053;-76
2022/03/01 00:48:18;;;;;;;11.75;8.30;;;4.70;83.70;;;;;;5015353;28;20042;-76
2022/03/01 00:50:43;;;;;;;13.52;8.63;;;4.70;83.90;;;;;;5015106;28;20507;-76
2022/03/01 00:53:09;;;;;;;10.48;8.82;;;4.60;84.30;;;;;;5015074;28;20076;-76
2022/03/01 00:55:35;;;;;;;12.60;8.95;;;4.70;84.20;;;;;;5015287;28;20042;-76
2022/03/01 00:58:01;;;;;;;11.52;8.45;;;4.60;84.10;;;;;;4998589;28;20042;-77
2022/03/01 01:00:28;;;;;;;11.25;8.68;;;4.60;84.00;;;;;;5014937;28;20073;-76
2022/03/01 01:02:54;;;;;;;12.98;8.82;;;4.60;84.10;;;;;;5014914;28;20441;-77
2022/03/01 01:05:19;;;;;;;13.60;8.27;;;4.50;83.70;;;;;;5014777;28;20065;-77
2022/03/01 01:07:45;;;;;;;12.10;8.30;;;4.50;85.10;;;;;;4998552;28;20037;-76
2022/03/01 01:10:11;;;;;;;10.55;7.65;;;4.50;84.10;;;;;;5014712;28;20042;-76
2022/03/01 01:12:37;;;;;;;12.80;8.48;;;4.50;82.30;;;;;;4998345;28;20401;-76
2022/03/01 01:15:04;;;;;;;10.48;8.18;;;4.50;83.40;;;;;;4998595;28;20064;-76
2022/03/01 01:17:30;;;;;;;10.48;8.43;;;4.50;82.60;;;;;;4998331;28;20445;-77
2022/03/01 01:19:55;;;;;;;11.43;8.32;;;4.50;83.60;;;;;;4998440;28;20041;-76
2022/03/01 01:22:39;;;;;;;12.07;8.85;;;4.50;83.40;;;;;;5014569;28;20041;-76
2022/03/01 01:25:16;;;;;;;11.93;8.52;;;4.40;82.30;;;;;;5014525;28;20492;-78
2022/03/01 01:27:44;;;;;;;12.30;8.35;;;4.40;83.10;;;;;;4997991;28;20420;-78
2022/03/01 01:30:12;;;;;;;12.32;8.02;;;4.40;82.60;;;;;;5014711;28;20496;-76
2022/03/01 01:32:38;;;;;;;11.40;8.55;;;4.40;84.00;;;;;;4997868;28;20038;-76
2022/03/01 01:35:05;;;;;;;13.77;8.82;;;4.40;83.90;;;;;;5014289;28;20419;-76
2022/03/01 01:37:31;;;;;;;9.55;7.68;;;4.30;83.10;;;;;;5014153;28;20076;-76
2022/03/01 01:39:56;;;;;;;11.85;8.43;;;4.30;82.90;;;;;;4997865;28;20131;-76
2022/03/01 01:42:22;;;;;;;11.90;8.02;;;4.30;82.10;;;;;;5014396;28;20033;-76
2022/03/01 01:44:48;;;;;;;12.57;8.52;;;4.30;82.40;;;;;;5014012;28;20500;-76
2022/03/01 01:47:13;;;;;;;13.02;8.27;;;4.30;82.20;;;;;;5014052;28;20045;-76
2022/03/01 01:49:39;;;;;;;10.98;8.23;;;4.30;81.10;;;;;;5013899;28;20073;-76
2022/03/01 01:52:05;;;;;;;13.02;8.57;;;4.30;80.70;;;;;;5013962;28;20096;-76
2022/03/01 01:54:31;;;;;;;11.80;8.73;;;4.30;80.70;;;;;;5013891;28;20042;-76
2022/03/01 01:56:57;;;;;;;12.65;8.35;;;4.30;80.90;;;;;;4997501;28;20034;-76
2022/03/01 01:59:22;;;;;;;13.05;7.88;;;4.30;80.70;;;;;;5012883;28;20038;-76
2022/03/01 02:01:48;;;;;;;11.40;8.45;;;4.30;80.50;;;;;;5013738;28;20044;-76
2022/03/01 02:04:14;;;;;;;12.13;8.40;;;4.30;80.70;;;;;;5013942;28;20042;-76
2022/03/01 02:06:50;;;;;;;11.75;8.85;;;4.30;81.50;;;;;;4997636;28;20451;-76
2022/03/01 02:09:16;;;;;;;13.10;8.65;;;4.30;82.00;;;;;;5013600;28;20084;-76
2022/03/01 02:11:41;;;;;;;14.18;9.07;;;4.20;85.10;;;;;;5013580;28;20069;-76
2022/03/01 02:14:07;;;;;;;11.73;8.65;;;4.10;86.10;;;;;;5013559;28;20041;-76
2022/03/01 02:16:33;;;;;;;13.68;8.68;;;4.10;87.80;;;;;;5013505;28;20041;-76
2022/03/01 02:18:59;;;;;;;12.55;7.95;;;4.00;87.80;;;;;;5013425;28;20049;-76
2022/03/01 02:21:24;;;;;;;12.70;8.75;;;4.10;86.30;;;;;;4997100;28;20038;-76
2022/03/01 02:23:50;;;;;;;14.38;9.82;;;4.10;85.60;;;;;;5013666;28;20042;-76
2022/03/01 02:26:15;;;;;;;13.05;8.45;;;4.00;85.80;;;;;;4996955;28;20038;-77
2022/03/01 02:28:41;;;;;;;10.90;8.23;;;4.00;86.40;;;;;;5013104;28;20056;-77
2022/03/01 02:31:06;;;;;;;15.20;8.57;;;4.10;88.20;;;;;;4996897;28;20129;-77
2022/03/01 02:33:32;;;;;;;12.73;8.52;;;4.00;88.20;;;;;;5013284;28;20033;-77
2022/03/01 02:35:57;;;;;;;12.88;8.88;;;4.00;87.40;;;;;;4996885;28;20088;-77
2022/03/01 02:38:23;;;;;;;12.93;8.52;;;4.00;86.90;;;;;;4996795;28;20046;-77
2022/03/01 02:40:48;;;;;;;11.45;8.10;;;4.00;86.50;;;;;;5013066;28;20049;-77
2022/03/01 02:43:16;;;;;;;13.32;9.10;;;4.00;86.30;;;;;;5013077;28;20128;-76
2022/03/01 02:45:41;;;;;;;10.88;8.32;;;4.00;88.70;;;;;;5012963;28;20042;-77
2022/03/01 02:48:07;;;;;;;13.50;8.60;;;4.00;89.60;;;;;;5013163;28;20064;-76
2022/03/01 02:50:32;;;;;;;13.68;9.35;;;4.00;88.80;;;;;;5013186;28;20511;-77
2022/03/01 02:52:58;;;;;;;11.90;8.30;;;4.00;87.40;;;;;;5012871;28;20492;-77
2022/03/01 02:55:23;;;;;;;11.50;8.90;;;4.00;87.50;;;;;;5013073;28;20040;-77
2022/03/01 02:57:49;;;;;;;11.77;8.68;;;4.00;87.60;;;;;;5012821;28;20392;-77
2022/03/01 03:00:15;;;;;;;12.82;9.05;;;4.00;87.20;;;;;;5012625;28;20073;-76
2022/03/01 03:02:42;;;;;;;13.23;8.75;;;4.00;87.10;;;;;;4996602;28;20054;-76
2022/03/01 03:05:07;;;;;;;15.63;8.77;;;4.00;87.50;;;;;;5012651;28;20046;-76
2022/03/01 03:07:33;;;;;;;12.88;8.85;;;4.00;87.90;;;;;;5012619;28;20499;-76
2022/03/01 03:09:59;;;;;;;13.75;8.95;;;3.90;87.80;;;;;;4995995;28;20073;-76
2022/03/01 03:12:24;;;;;;;14.35;9.45;;;3.90;87.40;;;;;;5012530;28;20065;-76
2022/03/01 03:14:50;;;;;;;11.38;8.98;;;3.90;87.40;;;;;;4996140;28;20046;-76
2022/03/01 03:17:16;;;;;;;12.32;9.07;;;3.90;87.60;;;;;;4996055;28;20052;-76
2022/03/01 03:19:42;;;;;;;11.10;8.38;;;3.90;87.60;;;;;;4996073;28;20042;-76
2022/03/01 03:22:07;;;;;;;13.50;8.88;;;3.90;87.90;;;;;;5012337;28;20042;-76
2022/03/01 03:24:33;;;;;;;13.35;9.50;;;3.90;88.00;;;;;;4995995;28;20042;-76
2022/03/01 03:26:59;;;;;;;11.52;8.40;;;3.90;88.10;;;;;;5012317;28;20038;-76
2022/03/01 03:29:24;;;;;;;13.35;8.85;;;3.80;88.30;;;;;;5012115;28;20092;-76
2022/03/01 03:31:54;;;;;;;12.27;9.05;;;3.80;89.40;;;;;;5012228;28;20038;-76
2022/03/01 03:34:20;;;;;;;13.27;8.95;;;3.80;88.80;;;;;;4995883;28;20046;-76
2022/03/01 03:36:45;;;;;;;14.18;9.65;;;3.90;88.70;;;;;;5012467;28;20042;-76
2022/03/01 03:39:11;;;;;;;12.80;9.85;;;3.80;90.10;;;;;;5012064;28;20125;-76
2022/03/01 03:41:37;;;;;;;15.80;9.55;;;3.80;90.10;;;;;;5012185;28;20038;-76
2022/03/01 03:44:04;;;;;;;10.45;8.63;;;3.80;90.10;;;;;;5012144;28;20044;-76
2022/03/01 03:46:29;;;;;;;13.68;9.32;;;3.80;90.10;;;;;;5012023;28;20038;-76
2022/03/01 03:48:55;;;;;;;12.80;9.07;;;3.80;90.20;;;;;;4995639;28;20034;-75
2022/03/01 03:51:21;;;;;;;13.70;9.68;;;3.80;90.40;;;;;;5012299;28;20048;-75
2022/03/01 03:53:47;;;;;;;13.10;9.07;;;3.70;90.50;;;;;;5012060;28;20408;-75
2022/03/01 03:56:13;;;;;;;17.38;9.98;;;3.80;90.70;;;;;;5012058;28;20482;-75
2022/03/01 03:58:39;;;;;;;15.75;9.73;;;3.80;90.50;;;;;;4995606;28;20053;-75
2022/03/01 04:01:05;;;;;;;13.23;9.60;;;3.80;91.30;;;;;;4995573;28;20034;-76
2022/03/01 04:03:31;;;;;;;15.13;9.65;;;3.80;91.30;;;;;;5012172;28;20084;-76
2022/03/01 04:05:56;;;;;;;12.25;9.20;;;3.80;91.10;;;;;;5011833;28;20412;-76
2022/03/01 04:08:22;;;;;;;13.25;9.30;;;3.80;91.20;;;;;;5012092;28;20045;-76
2022/03/01 04:10:47;;;;;;;16.33;10.07;;;3.80;91.50;;;;;;5011857;28;20412;-76
2022/03/01 04:13:13;;;;;;;13.73;9.85;;;3.80;92.00;;;;;;5011891;28;20088;-76
2022/03/01 04:15:39;;;;;;;13.55;9.55;;;3.80;92.10;;;;;;4995469;28;20045;-76
2022/03/01 04:18:05;;;;;;;13.32;9.77;;;3.80;92.00;;;;;;4995443;28;20045;-76
2022/03/01 04:20:31;;;;;;;13.43;9.90;;;3.80;92.70;;;;;;5011821;28;20045;-76
2022/03/01 04:22:57;;;;;;;13.27;9.32;;;3.80;92.60;;;;;;4999042;28;20499;-76
2022/03/01 04:25:23;;;;;;;12.60;9.32;;;3.70;92.40;;;;;;5015708;28;20077;-76
2022/03/01 04:27:49;;;;;;;16.00;10.13;;;3.70;92.90;;;;;;5015569;28;20034;-76
2022/03/01 04:30:15;;;;;;;13.30;9.45;;;3.70;92.70;;;;;;5015430;28;20389;-76
2022/03/01 04:32:42;;;;;;;18.23;10.57;;;3.70;92.60;;;;;;5015711;28;20037;-76
2022/03/01 04:35:09;;;;;;;14.73;9.40;;;3.70;92.60;;;;;;5015405;28;20420;-76
2022/03/01 04:37:41;;;;;;;13.02;9.38;;;3.70;92.90;;;;;;5015676;28;20045;-76
2022/03/01 04:40:08;;;;;;;15.48;9.73;;;3.70;92.60;;;;;;5015324;28;20607;-76
2022/03/01 04:42:34;;;;;;;13.63;9.50;;;3.60;92.70;;;;;;5015495;28;20044;-76
2022/03/01 04:45:01;;;;;;;15.25;9.95;;;3.70;93.10;;;;;;5015121;28;20046;-76
2022/03/01 04:47:27;;;;;;;13.48;9.93;;;3.60;93.40;;;;;;5015437;28;20030;-76
2022/03/01 04:49:53;;;;;;;13.57;10.10;;;3.60;93.60;;;;;;5015338;28;20084;-76
2022/03/01 04:52:18;;;;;;;14.35;10.15;;;3.60;93.70;;;;;;5015116;28;20041;-76
2022/03/01 04:54:44;;;;;;;17.27;9.68;;;3.60;94.00;;;;;;5015301;28;20081;-76
2022/03/01 04:57:10;;;;;;;15.30;9.73;;;3.60;94.40;;;;;;4998712;28;20077;-76
2022/03/01 04:59:36;;;;;;;14.20;10.18;;;3.60;94.20;;;;;;4998857;28;20124;-76
2022/03/01 05:02:01;;;;;;;14.57;10.25;;;3.60;94.20;;;;;;5015213;28;20492;-76
2022/03/01 05:04:27;;;;;;;18.08;10.10;;;3.60;94.60;;;;;;5015111;28;20496;-76
2022/03/01 05:06:53;;;;;;;15.57;10.10;;;3.60;94.80;;;;;;5015104;28;20377;-76
2022/03/01 05:09:21;;;;;;;14.18;10.00;;;3.60;94.60;;;;;;5014746;28;20033;-76
2022/03/01 05:11:48;;;;;;;14.68;10.50;;;3.60;94.50;;;;;;4998403;28;20034;-76
2022/03/01 05:14:13;;;;;;;17.45;10.13;;;3.60;94.50;;;;;;5014714;28;20037;-76
2022/03/01 05:16:39;;;;;;;15.23;10.57;;;3.50;94.50;;;;;;5014586;28;20091;-76
2022/03/01 05:19:04;;;;;;;14.88;10.73;;;3.50;94.90;;;;;;5014564;28;20104;-76
2022/03/01 05:21:30;;;;;;;14.55;9.95;;;3.50;95.40;;;;;;5014841;28;20045;-76
2022/03/01 05:23:56;;;;;;;14.63;9.60;;;3.50;95.60;;;;;;5014545;28;20041;-76
2022/03/01 05:26:21;;;;;;;14.55;10.38;;;3.50;95.70;;;;;;5014439;28;20050;-76
2022/03/01 05:28:47;;;;;;;15.88;10.00;;;3.50;95.40;;;;;;5014446;28;20484;-76
2022/03/01 05:31:12;;;;;;;14.63;10.25;;;3.50;95.60;;;;;;5014426;28;20504;-76
2022/03/01 05:33:38;;;;;;;15.95;10.10;;;3.60;95.60;;;;;;4997954;28;20040;-76
2022/03/01 05:36:04;;;;;;;15.32;10.35;;;3.60;95.40;;;;;;4997966;28;20089;-76
2022/03/01 05:38:30;;;;;;;15.05;10.30;;;3.60;96.10;;;;;;5014436;28;20096;-76
2022/03/01 05:40:55;;;;;;;13.65;10.10;;;3.60;95.70;;;;;;4998085;28;20519;-76
2022/03/01 05:43:21;;;;;;;13.25;9.70;;;3.60;95.60;;;;;;5014470;28;20511;-76
2022/03/01 05:45:47;;;;;;;12.57;10.20;;;3.60;95.40;;;;;;5013980;28;20519;-76
2022/03/01 05:48:12;;;;;;;14.68;9.85;;;3.60;95.80;;;;;;5014257;28;20042;-76
2022/03/01 05:50:38;;;;;;;14.93;10.45;;;3.60;95.80;;;;;;5013959;28;20555;-76
2022/03/01 05:53:04;;;;;;;15.93;10.63;;;3.60;95.50;;;;;;5013929;28;20042;-76
2022/03/01 05:55:29;;;;;;;15.75;10.55;;;3.60;95.40;;;;;;4997889;28;20076;-76
2022/03/01 05:57:55;;;;;;;18.05;10.45;;;3.60;95.20;;;;;;5014147;28;20046;-76
2022/03/01 06:00:21;;;;;;;17.77;10.55;;;3.60;95.20;;;;;;5013721;28;20045;-76
2022/03/01 06:02:49;;;;;;;16.80;10.75;;;3.60;95.40;;;;;;4997721;28;20419;-76
2022/03/01 06:05:16;;;;;;;17.30;10.57;;;3.50;95.50;;;;;;5013663;28;20073;-76
2022/03/01 06:07:42;;;;;;;14.57;10.25;;;3.50;95.40;;;;;;5013685;28;20065;-76
2022/03/01 06:10:08;;;;;;;16.10;9.50;;;3.50;95.30;;;;;;5013555;28;20034;-76
2022/03/01 06:12:35;;;;;;;13.48;9.57;;;3.50;95.60;;;;;;5013661;28;20048;-76
2022/03/01 06:15:01;;;;;;;18.30;9.75;;;3.50;95.70;;;;;;5013558;28;20049;-76
2022/03/01 06:17:26;;;;;;;15.88;9.60;;;3.50;95.60;;;;;;5013567;28;20072;-76
2022/03/01 06:19:52;;;;;;;14.90;10.13;;;3.50;95.70;;;;;;4997338;28;20045;-76
2022/03/01 06:22:19;;;;;;;14.90;9.93;;;3.50;95.40;;;;;;5013671;28;20393;-76
2022/03/01 06:24:44;;;;;;;17.10;9.38;;;3.50;95.50;;;;;;4996957;28;20454;-76
2022/03/01 06:27:10;;;;;;;15.07;9.82;;;3.50;95.40;;;;;;5013352;28;20046;-76
2022/03/01 06:29:36;;;;;;;15.57;10.25;;;3.50;95.40;;;;;;5013122;28;20044;-76
2022/03/01 06:32:03;;;;;;;15.70;10.82;;;3.50;95.70;;;;;;5013180;28;20423;-76
2022/03/01 06:34:30;;;;;;;15.63;10.25;;;3.50;95.80;;;;;;4996845;28;20073;-76
2022/03/01 06:36:56;;;;;;;17.00;10.80;;;3.50;96.10;;;;;;5013598;28;20033;-76
2022/03/01 06:39:21;;;;;;;13.90;10.05;;;3.50;96.40;;;;;;5013043;28;20045;-76
2022/03/01 06:41:47;;;;;;;15.80;10.68;;;3.40;97.10;;;;;;4996757;28;20045;-76
2022/03/01 06:44:12;;;;;;;17.63;10.73;;;3.50;96.90;;;;;;5012503;28;20041;-76
2022/03/01 06:46:38;;;;;;;14.20;10.23;;;3.50;97.00;;;;;;5012937;28;20441;-76
2022/03/01 06:49:04;;;;;;;14.35;10.57;;;3.50;97.10;;;;;;5013187;28;20045;-76
2022/03/01 06:51:30;;;;;;;15.05;9.50;;;3.50;97.20;;;;;;5012938;28;20030;-76
2022/03/01 06:53:55;;;;;;;14.93;9.77;;;3.50;97.00;;;;;;5012961;28;20034;-76
2022/03/01 06:56:21;;;;;;;17.33;10.68;;;3.50;97.00;;;;;;5012811;28;20466;-76
2022/03/01 06:58:48;;;;;;;16.02;10.45;;;3.60;97.00;;;;;;5012749;28;20046;-76
2022/03/01 07:01:14;;;;;;;15.40;10.35;;;3.60;97.40;;;;;;5012743;28;20100;-76
2022/03/01 07:03:42;;;;;;;15.50;9.80;;;3.60;97.40;;;;;;5012744;28;20041;-76
2022/03/01 07:06:08;;;;;;;17.77;9.98;;;3.70;97.30;;;;;;5012569;28;20042;-76
2022/03/01 07:08:34;;;;;;;15.13;10.63;;;3.70;97.20;;;;;;5012550;28;20064;-76
2022/03/01 07:10:59;;;;;;;15.93;10.02;;;3.80;97.40;;;;;;4996192;28;20034;-76
2022/03/01 07:13:25;;;;;;;14.63;10.07;;;3.80;97.50;;;;;;4996473;28;20128;-76
2022/03/01 07:15:50;;;;;;;13.35;9.63;;;3.90;97.00;;;;;;5012549;28;20160;-76
2022/03/01 07:18:16;;;;;;;16.13;10.10;;;3.90;96.80;;;;;;5012672;28;20042;-76
2022/03/01 07:20:43;;;;;;;15.23;10.50;;;3.90;96.70;;;;;;4996291;28;20044;-76
2022/03/01 07:23:10;;;;;;;19.23;10.40;;;4.00;96.50;;;;;;5012399;28;20095;-76
2022/03/01 07:25:36;;;;;;;16.27;10.88;;;4.00;96.40;;;;;;5012304;28;20531;-76
2022/03/01 07:28:03;;;;;;;16.17;10.13;;;4.00;96.50;;;;;;5012124;28;20531;-76
2022/03/01 07:30:29;;;;;;;14.65;10.93;;;4.00;96.50;;;;;;5013064;28;20064;-78
2022/03/01 07:32:59;;;;;;;15.70;10.88;;;4.00;96.60;;;;;;4995871;28;20412;-78
2022/03/01 07:35:26;;;;;;;16.33;11.25;;;4.00;96.50;;;;;;5012564;28;20072;-78
2022/03/01 07:37:52;;;;;;;19.10;10.55;;;4.10;96.60;;;;;;5012455;28;20141;-78
2022/03/01 07:40:20;;;;;;;14.68;11.07;;;4.10;96.60;;;;;;5012145;28;20133;-78
2022/03/01 07:42:46;;;;;;;15.77;11.30;;;4.10;96.90;;;;;;4995830;28;20046;-78
2022/03/01 07:45:12;;;;;;;16.70;10.57;;;4.10;96.70;;;;;;4996096;28;20488;-78
2022/03/01 07:47:38;;;;;;;15.32;10.55;;;4.10;96.80;;;;;;5012669;28;20042;-78
2022/03/01 07:50:05;;;;;;;15.95;11.63;;;4.20;97.10;;;;;;5012733;28;20030;-78
2022/03/01 07:52:30;;;;;;;15.57;10.55;;;4.10;97.00;;;;;;5013508;28;20049;-78
2022/03/01 07:54:56;;;;;;;20.73;11.82;;;4.20;97.00;;;;;;4995893;28;20042;-78
2022/03/01 07:57:22;;;;;;;16.95;11.52;;;4.20;96.90;;;;;;5014928;28;20037;-78
2022/03/01 07:59:47;;;;;;;16.48;11.35;;;4.20;97.10;;;;;;5016070;28;20049;-78
2022/03/01 08:02:13;;;;;;;17.58;11.50;;;4.10;97.10;;;;;;5016083;28;20037;-78
2022/03/01 08:04:41;;;;;;;16.92;11.35;;;4.10;97.10;;;;;;5015951;28;20076;-78
2022/03/01 08:07:08;;;;;;;19.42;11.88;;;4.10;97.20;;;;;;5016024;28;20052;-78
2022/03/01 08:09:35;;;;;;;16.23;11.15;;;4.10;97.50;;;;;;5016160;28;20046;-78
2022/03/01 08:12:02;;;;;;;15.52;11.85;;;4.10;97.80;;;;;;5016065;28;20041;-78
2022/03/01 08:14:30;;;;;;;19.27;12.40;;;4.20;97.80;;;;;;5015958;28;20065;-78
2022/03/01 08:16:55;;;;;;;15.88;10.82;;;4.20;98.00;;;;;;4999379;28;20045;-78
2022/03/01 08:19:21;;;;;;;15.35;11.35;;;4.20;98.00;;;;;;4999303;28;20038;-78
2022/03/01 08:21:47;;;;;;;18.38;12.05;;;4.20;98.70;;;;;;5015743;28;20042;-78
2022/03/01 08:24:12;;;;;;;18.23;11.27;;;4.30;98.30;;;;;;5015726;28;20060;-78
2022/03/01 08:26:38;;;;;;;16.92;11.95;;;4.30;98.30;;;;;;5015524;28;20128;-78
2022/03/01 08:29:04;;;;;;;16.13;11.70;;;4.30;98.20;;;;;;5015426;28;20089;-78
2022/03/01 08:31:29;;;;;;;22.98;11.85;;;4.40;98.20;;;;;;5015634;28;20041;-78
2022/03/01 08:33:58;;;;;;;16.65;11.70;;;4.40;97.70;;;;;;5015752;28;20042;-82
2022/03/01 08:36:24;;;;;;;18.90;12.65;;;4.50;97.60;;;;;;5015574;28;20042;-78
2022/03/01 08:38:50;;;;;;;17.42;12.48;;;4.50;97.40;;;;;;5015408;28;20050;-78
2022/03/01 08:41:16;;;;;;;18.10;12.10;;;4.60;97.40;;;;;;4999161;28;20040;-78
2022/03/01 08:43:41;;;;;;;15.13;11.32;;;4.70;97.30;;;;;;5015285;28;20412;-78
2022/03/01 08:46:11;;;;;;;15.57;11.52;;;4.70;97.20;;;;;;5015219;28;20125;-78
2022/03/01 08:48:37;;;;;;;15.30;11.32;;;4.80;97.30;;;;;;5015453;28;20040;-78
2022/03/01 08:51:03;;;;;;;19.42;11.93;;;5.00;97.20;;;;;;5015470;28;20128;-78
2022/03/01 08:53:29;;;;;;;16.60;11.75;;;5.10;96.90;;;;;;5015378;28;20038;-78
2022/03/01 08:55:54;;;;;;;17.75;11.15;;;5.30;96.70;;;;;;5015380;28;20060;-79
2022/03/01 08:58:20;;;;;;;15.40;11.80;;;5.50;95.10;;;;;;5015384;28;20042;-79
2022/03/01 09:00:46;;;;;;;16.08;11.70;;;5.50;94.10;;;;;;4999040;28;20412;-79
2022/03/01 09:03:11;;;;;;;16.27;12.52;;;5.50;94.90;;;;;;5015549;28;20049;-79
2022/03/01 09:05:37;;;;;;;16.00;11.90;;;5.50;95.40;;;;;;4998803;28;20042;-79
2022/03/01 09:08:03;;;;;;;16.55;12.20;;;5.40;95.90;;;;;;5014818;28;20053;-79
2022/03/01 09:10:29;;;;;;;17.85;12.65;;;5.50;96.20;;;;;;5015269;28;20127;-79
2022/03/01 09:12:56;;;;;;;19.65;11.85;;;5.60;95.50;;;;;;5015325;28;20484;-79
2022/03/01 09:15:23;;;;;;;18.02;11.88;;;5.70;95.20;;;;;;5014988;28;20077;-79
2022/03/01 09:17:49;;;;;;;16.52;12.20;;;5.70;94.80;;;;;;5015330;28;20042;-79
2022/03/01 09:20:15;;;;;;;18.02;11.93;;;5.70;94.90;;;;;;5015004;28;20046;-79
2022/03/01 09:22:44;;;;;;;18.35;12.48;;;5.70;95.50;;;;;;5015257;28;20109;-79
2022/03/01 09:25:10;;;;;;;17.60;12.70;;;5.90;94.80;;;;;;4998545;28;20034;-79
2022/03/01 09:27:35;;;;;;;16.88;11.80;;;6.40;93.30;;;;;;4999145;28;20045;-79
2022/03/01 09:30:02;;;;;;;16.58;11.73;;;7.10;90.20;;;;;;5014883;28;20048;-79
2022/03/01 09:32:28;;;;;;;19.80;12.23;;;7.60;85.00;;;;;;4998916;28;20042;-79
2022/03/01 09:34:55;;;;;;;16.98;12.45;;;7.80;78.60;;;;;;5014670;28;20053;-76
2022/03/01 09:37:22;;;;;;;19.58;12.20;;;7.80;76.80;;;;;;5014676;28;20091;-79
2022/03/01 09:39:47;;;;;;;17.70;11.85;;;7.80;76.60;;;;;;4998600;28;20038;-79
2022/03/01 09:42:13;;;;;;;16.90;12.48;;;7.90;76.00;;;;;;4998478;28;20042;-80
2022/03/01 09:44:40;;;;;;;16.98;11.95;;;7.90;75.30;;;;;;4998051;28;20041;-79
2022/03/01 09:47:05;;;;;;;18.38;12.27;;;7.90;73.80;;;;;;5014797;28;20042;-79
2022/03/01 09:49:31;;;;;;;19.73;12.60;;;7.80;74.30;;;;;;4998763;28;20034;-79
2022/03/01 09:51:56;;;;;;;18.67;12.27;;;7.70;75.60;;;;;;5014623;28;20041;-79
2022/03/01 09:54:23;;;;;;;17.50;13.18;;;7.60;76.60;;;;;;5014482;28;20042;-79
2022/03/01 09:56:49;;;;;;;17.75;12.73;;;7.40;77.30;;;;;;4998234;28;20046;-79
2022/03/01 09:59:15;;;;;;;19.20;12.52;;;7.30;79.50;;;;;;5014584;28;20499;-79
2022/03/01 10:01:51;;;;;;;19.90;13.15;;;7.10;81.70;;;;;;4998463;28;20092;-79
2022/03/01 10:04:17;;;;;;;21.48;14.07;;;7.10;79.40;;;;;;5014671;28;20041;-79
2022/03/01 10:06:48;;;;;;;17.55;13.20;;;7.10;80.30;;;;;;5014167;28;20129;-79
2022/03/01 10:09:21;;;;;;;18.13;11.98;;;7.20;79.90;;;;;;5014167;28;20041;-79
2022/03/01 10:11:48;;;;;;;16.33;12.13;;;7.50;80.50;;;;;;5014332;28;20044;-79
2022/03/01 10:14:15;;;;;;;17.40;13.02;;;8.00;75.20;;;;;;5013981;28;20038;-79
2022/03/01 10:16:44;;;;;;;17.70;12.80;;;8.50;70.80;;;;;;4997239;28;20045;-78
2022/03/01 10:19:21;;;;;;;18.45;13.15;;;9.10;66.90;;;;;;4996364;28;20435;-78
2022/03/01 10:21:48;;;;;;;18.08;12.55;;;9.80;63.70;;;;;;5013930;28;20555;-78
2022/03/01 10:24:15;;;;;;;17.17;12.55;;;10.20;61.80;;;;;;5013796;28;20049;-78
2022/03/01 10:26:43;;;;;;;20.40;14.00;;;10.80;59.70;;;;;;5014543;28;20579;-78
2022/03/01 10:29:09;;;;;;;18.23;12.93;;;11.40;58.10;;;;;;5013397;28;20046;-78
2022/03/01 10:31:35;;;;;;;17.42;11.50;;;12.00;57.30;;;;;;4997067;28;20034;-78
2022/03/01 10:34:04;;;;;;;16.60;11.93;;;12.30;55.20;;;;;;5013543;28;20037;-78
2022/03/01 10:36:36;;;;;;;16.55;12.48;;;12.30;54.30;;;;;;5013181;28;20048;-77
2022/03/01 10:39:08;;;;;;;17.35;11.93;;;12.00;54.60;;;;;;5013181;28;20128;-78
2022/03/01 10:41:38;;;;;;;18.33;12.18;;;11.60;55.30;;;;;;4996936;28;20038;-79
2022/03/01 10:44:05;;;;;;;15.23;12.60;;;11.40;56.50;;;;;;4996779;28;20038;-78
2022/03/01 10:46:37;;;;;;;18.08;12.43;;;11.50;56.50;;;;;;4996902;28;20049;-80
2022/03/01 10:49:08;;;;;;;16.88;12.38;;;11.70;56.40;;;;;;5013353;28;20041;-78
2022/03/01 10:51:54;;;;;;;17.98;12.35;;;11.90;56.30;;;;;;5012907;28;20046;-78
2022/03/01 10:54:30;;;;;;;18.83;13.73;;;11.80;55.70;;;;;;5012326;28;20046;-77
2022/03/01 10:56:57;;;;;;;16.88;12.70;;;11.50;56.10;;;;;;5012856;28;20112;-77
2022/03/01 10:59:27;;;;;;;16.98;12.82;;;11.60;57.40;;;;;;5012815;28;20115;-77
2022/03/01 11:01:54;;;;;;;19.85;12.48;;;11.80;57.00;;;;;;5013558;28;20095;-77
2022/03/01 11:04:24;;;;;;;20.33;13.23;;;11.90;56.10;;;;;;5013448;28;20145;-77
2022/03/01 11:06:51;;;;;;;16.85;12.20;;;12.00;56.60;;;;;;5013029;28;20053;-77
2022/03/01 11:09:18;;;;;;;18.13;12.82;;;11.60;56.70;;;;;;5012716;28;20037;-77
2022/03/01 11:11:45;;;;;;;16.52;12.35;;;11.20;57.30;;;;;;5012750;28;20044;-77
2022/03/01 11:14:14;;;;;;;15.60;12.25;;;10.80;58.30;;;;;;5012613;28;20048;-77
2022/03/01 11:16:49;;;;;;;16.30;12.52;;;10.40;59.20;;;;;;4996203;28;20038;-77
2022/03/01 11:19:33;;;;;;;15.98;11.93;;;10.20;60.40;;;;;;5012474;28;20512;-77
2022/03/01 11:22:00;;;;;;;16.02;12.27;;;9.90;60.30;;;;;;5012527;28;20053;-77
2022/03/01 11:24:26;;;;;;;16.35;12.23;;;9.80;60.90;;;;;;5012376;28;20468;-77
2022/03/01 11:26:52;;;;;;;16.67;12.23;;;9.70;61.30;;;;;;5012289;28;20052;-76
2022/03/01 11:29:18;;;;;;;17.33;12.07;;;9.60;61.30;;;;;;5012119;28;20037;-77
2022/03/01 11:31:59;;;;;;;18.08;11.95;;;9.60;61.50;;;;;;4996107;28;20088;-77
2022/03/01 11:34:25;;;;;;;17.08;12.18;;;9.50;61.40;;;;;;4996217;28;20037;-77
2022/03/01 11:36:55;;;;;;;14.07;11.63;;;9.50;61.90;;;;;;5012229;28;20587;-77
2022/03/01 11:39:30;;;;;;;18.95;11.40;;;9.60;61.20;;;;;;5012086;28;20034;-81
2022/03/01 11:42:03;;;;;;;15.75;12.13;;;9.70;60.50;;;;;;5012418;28;20108;-76
2022/03/01 11:44:33;;;;;;;16.58;12.80;;;9.70;60.30;;;;;;5012308;28;20555;-76
2022/03/01 11:47:02;;;;;;;17.55;11.95;;;9.70;60.40;;;;;;4995792;28;20042;-76
2022/03/01 11:49:34;;;;;;;18.15;11.95;;;9.70;60.40;;;;;;5012015;28;20080;-76
2022/03/01 11:52:00;;;;;;;17.00;11.95;;;9.60;60.40;;;;;;5012168;28;20041;-77
2022/03/01 11:54:32;;;;;;;15.80;12.13;;;9.70;61.50;;;;;;5012049;28;20041;-77
2022/03/01 11:57:00;;;;;;;17.08;11.57;;;9.80;61.60;;;;;;5012283;28;20049;-76
2022/03/01 11:59:26;;;;;;;17.52;12.32;;;9.90;60.20;;;;;;4995797;28;20081;-77
2022/03/01 12:01:53;;;;;;;14.70;10.95;;;9.90;59.80;;;;;;5011963;28;20048;-77
2022/03/01 12:04:27;;;;;;;16.15;12.07;;;10.10;59.50;;;;;;5012110;28;20037;-76
2022/03/01 12:06:56;;;;;;;18.00;12.57;;;10.20;59.40;;;;;;4995808;28;20042;-76
2022/03/01 12:09:25;;;;;;;16.67;12.38;;;10.10;59.60;;;;;;4995864;28;20041;-77
2022/03/01 12:12:05;;;;;;;15.43;12.15;;;10.10;60.20;;;;;;5012295;28;20443;-78
2022/03/01 12:14:34;;;;;;;18.58;12.23;;;10.00;59.90;;;;;;5012028;28;20121;-78
2022/03/01 12:17:01;;;;;;;14.93;11.60;;;9.90;60.50;;;;;;5011954;28;20041;-78
2022/03/01 12:19:33;;;;;;;16.63;12.05;;;9.80;60.00;;;;;;4995567;28;20117;-78
2022/03/01 12:22:01;;;;;;;16.85;12.20;;;9.70;60.20;;;;;;4995717;28;20057;-77
2022/03/01 12:24:28;;;;;;;16.90;12.65;;;9.60;60.60;;;;;;5011682;28;20038;-77
2022/03/01 12:26:58;;;;;;;17.10;13.10;;;9.60;61.60;;;;;;5011657;28;20042;-77
2022/03/01 12:29:30;;;;;;;18.33;12.75;;;9.60;61.70;;;;;;5011534;28;20411;-77
2022/03/01 12:32:00;;;;;;;15.50;12.38;;;9.50;61.40;;;;;;5011979;28;20037;-77
2022/03/01 12:34:29;;;;;;;16.70;12.43;;;9.50;61.40;;;;;;4995278;28;20044;-77
2022/03/01 12:37:04;;;;;;;15.63;12.07;;;9.50;61.30;;;;;;4995532;28;20132;-77
2022/03/01 12:39:30;;;;;;;17.08;13.05;;;9.50;61.40;;;;;;4995194;28;20080;-77